createdAt,value
2019-01-20T00:01:55.522Z,77.65
2019-01-20T00:04:03.036Z,78.25
2019-01-20T00:06:10.659Z,78.53
2019-01-20T00:08:18.097Z,78.41
2019-01-20T00:10:25.162Z,78.65
2019-01-20T00:12:32.417Z,78.28
2019-01-20T00:14:39.764Z,78.03
2019-01-20T00:16:46.862Z,77.68
2019-01-20T00:18:53.948Z,77.82
2019-01-20T00:21:01.440Z,77.60
2019-01-20T00:23:08.730Z,77.89
2019-01-20T00:25:16.270Z,78.13
2019-01-20T00:27:23.589Z,78.49
2019-01-20T00:29:31.033Z,78.63
2019-01-20T00:31:38.934Z,77.83
2019-01-20T00:33:46.332Z,77.35
2019-01-20T00:35:53.329Z,76.60
2019-01-20T00:38:01.043Z,76.74
2019-01-20T00:40:10.529Z,77.09
2019-01-20T00:42:17.987Z,76.84
2019-01-20T00:44:25.776Z,76.69
2019-01-20T00:46:33.293Z,76.70
2019-01-20T00:48:40.689Z,77.00
2019-01-20T00:50:48.182Z,77.42
2019-01-20T00:52:55.367Z,77.55
2019-01-20T00:55:02.860Z,77.78
2019-01-20T00:57:10.503Z,77.92
2019-01-20T00:59:17.888Z,78.17
2019-01-20T01:01:27.398Z,77.71
2019-01-20T01:03:34.709Z,77.51
2019-01-20T01:05:42.105Z,77.53
2019-01-20T01:07:50.351Z,76.93
2019-01-20T01:09:57.908Z,77.47
2019-01-20T01:12:05.078Z,77.32
2019-01-20T01:14:12.106Z,77.28
2019-01-20T01:16:19.286Z,77.58
2019-01-20T01:18:26.646Z,77.86
2019-01-20T01:20:33.984Z,78.22
2019-01-20T01:22:41.577Z,78.04
2019-01-20T01:24:48.995Z,78.73
2019-01-20T01:26:56.290Z,78.19
2019-01-20T01:29:03.728Z,78.11
2019-01-20T01:31:11.201Z,78.08
2019-01-20T01:33:18.563Z,78.19
2019-01-20T01:35:26.296Z,78.25
2019-01-20T01:37:33.740Z,78.05
2019-01-20T01:39:41.215Z,78.06
2019-01-20T01:41:48.485Z,78.50
2019-01-20T01:43:55.960Z,78.45
2019-01-20T01:46:03.376Z,79.24
2019-01-20T01:48:10.889Z,79.18
2019-01-20T01:50:19.100Z,79.11
2019-01-20T01:52:26.438Z,79.59
2019-01-20T01:54:33.960Z,79.53
2019-01-20T01:56:41.204Z,79.97
2019-01-20T01:58:48.634Z,79.92
2019-01-20T02:00:56.161Z,80.10
2019-01-20T02:03:03.567Z,79.99
2019-01-20T02:05:11.292Z,79.95
2019-01-20T02:07:18.794Z,79.47
2019-01-20T02:09:26.571Z,79.73
2019-01-20T02:11:33.991Z,79.64
2019-01-20T02:13:41.449Z,80.05
2019-01-20T02:15:48.758Z,80.19
2019-01-20T02:17:56.201Z,80.05
2019-01-20T02:20:03.719Z,80.24
2019-01-20T02:22:11.331Z,80.42
2019-01-20T02:24:18.866Z,80.41
2019-01-20T02:26:26.358Z,79.89
2019-01-20T02:28:33.653Z,80.91
2019-01-20T02:30:40.815Z,80.93
2019-01-20T02:32:48.421Z,80.68
2019-01-20T02:34:55.849Z,80.71
2019-01-20T02:37:03.181Z,80.68
2019-01-20T02:39:10.802Z,80.08
2019-01-20T02:41:18.060Z,79.22
2019-01-20T02:43:25.419Z,80.16
2019-01-20T02:45:32.702Z,80.55
2019-01-20T02:47:40.092Z,80.37
2019-01-20T02:49:47.852Z,80.42
2019-01-20T02:51:55.518Z,80.64
2019-01-20T02:54:02.983Z,80.76
2019-01-20T02:56:10.274Z,79.52
2019-01-20T02:58:17.805Z,80.12
2019-01-20T03:00:25.928Z,80.51
2019-01-20T03:02:33.351Z,80.35
2019-01-20T03:04:40.832Z,80.53
2019-01-20T03:06:48.324Z,80.81
2019-01-20T03:08:55.696Z,80.29
2019-01-20T03:11:03.577Z,80.50
2019-01-20T03:13:10.914Z,80.76
2019-01-20T03:15:18.390Z,80.82
2019-01-20T03:17:25.931Z,81.02
2019-01-20T03:19:33.332Z,80.52
2019-01-20T03:21:40.648Z,78.10
2019-01-20T03:23:48.405Z,78.15
2019-01-20T03:25:55.741Z,80.06
2019-01-20T03:28:03.218Z,79.41
2019-01-20T03:30:15.150Z,80.30
2019-01-20T03:32:22.559Z,80.49
2019-01-20T03:34:29.946Z,80.90
2019-01-20T03:36:37.321Z,80.93
2019-01-20T03:38:44.757Z,80.67
2019-01-20T03:40:52.096Z,80.66
2019-01-20T03:42:59.671Z,80.95
2019-01-20T03:45:09.236Z,79.92
2019-01-20T03:47:16.636Z,78.22
2019-01-20T03:49:24.093Z,79.60
2019-01-20T03:51:31.130Z,80.36
2019-01-20T03:53:38.191Z,79.42
2019-01-20T03:55:45.663Z,79.14
2019-01-20T03:57:53.053Z,78.24
2019-01-20T04:00:00.479Z,79.38
2019-01-20T04:02:07.916Z,79.55
2019-01-20T04:04:15.318Z,79.74
2019-01-20T04:06:22.702Z,80.39
2019-01-20T04:08:30.218Z,79.89
2019-01-20T04:10:37.572Z,80.57
2019-01-20T04:12:45.454Z,80.60
2019-01-20T04:14:52.909Z,80.47
2019-01-20T04:17:00.262Z,80.24
2019-01-20T04:19:07.622Z,80.17
2019-01-20T04:21:15.050Z,80.08
2019-01-20T04:23:22.390Z,79.94
2019-01-20T04:25:29.722Z,80.19
2019-01-20T04:27:37.143Z,80.09
2019-01-20T04:29:44.493Z,78.20
2019-01-20T04:31:51.666Z,77.76
2019-01-20T04:33:59.041Z,77.40
2019-01-20T04:36:06.213Z,79.71
2019-01-20T04:38:13.623Z,79.17
2019-01-20T04:40:23.688Z,78.96
2019-01-20T04:42:31.176Z,78.27
2019-01-20T04:44:38.510Z,78.86
2019-01-20T04:46:45.866Z,78.64
2019-01-20T04:48:53.283Z,78.65
2019-01-20T04:51:00.741Z,78.90
2019-01-20T04:53:08.790Z,78.65
2019-01-20T04:55:16.131Z,79.08
2019-01-20T04:57:23.695Z,79.35
2019-01-20T04:59:31.250Z,79.81
2019-01-20T05:01:38.607Z,80.14
2019-01-20T05:03:46.174Z,80.00
2019-01-20T05:05:53.645Z,79.57
2019-01-20T05:08:01.099Z,79.83
2019-01-20T05:10:10.307Z,79.95
2019-01-20T05:12:17.897Z,80.11
2019-01-20T05:14:25.693Z,79.65
2019-01-20T05:16:33.138Z,79.77
2019-01-20T05:18:40.728Z,79.34
2019-01-20T05:20:48.061Z,79.34
2019-01-20T05:22:55.431Z,78.84
2019-01-20T05:25:02.831Z,79.08
2019-01-20T05:27:10.196Z,78.60
2019-01-20T05:29:17.780Z,78.41
2019-01-20T05:31:25.169Z,78.44
2019-01-20T05:33:32.545Z,78.28
2019-01-20T05:35:39.924Z,78.75
2019-01-20T05:37:47.469Z,78.50
2019-01-20T05:39:54.928Z,79.14
2019-01-20T05:42:02.147Z,78.66
2019-01-20T05:44:09.761Z,79.11
2019-01-20T05:46:17.109Z,78.57
2019-01-20T05:48:24.539Z,78.37
2019-01-20T05:50:31.991Z,78.28
2019-01-20T05:52:39.459Z,78.48
2019-01-20T05:54:46.817Z,78.66
2019-01-20T05:56:54.257Z,78.62
2019-01-20T05:59:01.756Z,78.27
2019-01-20T06:01:09.104Z,78.15
2019-01-20T06:03:16.373Z,77.87
2019-01-20T06:05:23.691Z,77.79
2019-01-20T06:07:31.161Z,78.27
2019-01-20T06:09:38.975Z,77.72
2019-01-20T06:11:46.327Z,78.47
2019-01-20T06:13:53.705Z,79.06
2019-01-20T06:16:02.063Z,79.29
2019-01-20T06:18:09.828Z,79.45
2019-01-20T06:20:18.533Z,78.66
2019-01-20T06:22:25.864Z,78.20
2019-01-20T06:24:33.242Z,78.37
2019-01-20T06:26:40.764Z,78.84
2019-01-20T06:28:47.952Z,78.57
2019-01-20T06:30:55.276Z,78.98
2019-01-20T06:33:02.676Z,78.79
2019-01-20T06:35:10.175Z,77.99
2019-01-20T06:37:17.622Z,77.94
2019-01-20T06:39:25.007Z,77.82
2019-01-20T06:41:32.391Z,77.72
2019-01-20T06:43:40.033Z,77.57
2019-01-20T06:45:47.414Z,77.77
2019-01-20T06:47:55.086Z,78.05
2019-01-20T06:50:02.633Z,78.50
2019-01-20T06:52:09.893Z,77.51
2019-01-20T06:54:17.525Z,77.94
2019-01-20T06:56:25.066Z,78.20
2019-01-20T06:58:32.384Z,78.18
2019-01-20T07:00:39.580Z,78.81
2019-01-20T07:02:46.843Z,78.57
2019-01-20T07:04:54.216Z,78.86
2019-01-20T07:07:01.563Z,78.95
2019-01-20T07:09:10.362Z,77.83
2019-01-20T07:11:17.799Z,76.97
2019-01-20T07:13:25.208Z,77.93
2019-01-20T07:15:32.722Z,78.67
2019-01-20T07:17:40.389Z,79.91
2019-01-20T07:19:48.182Z,79.80
2019-01-20T07:21:55.614Z,79.51
2019-01-20T07:24:03.300Z,78.81
2019-01-20T07:26:10.994Z,79.10
2019-01-20T07:28:18.316Z,79.13
2019-01-20T07:30:26.998Z,79.30
2019-01-20T07:32:34.745Z,79.77
2019-01-20T07:34:42.210Z,78.89
2019-01-20T07:36:49.530Z,79.05
2019-01-20T07:38:57.222Z,79.04
2019-01-20T07:41:04.719Z,79.06
2019-01-20T07:43:16.704Z,79.18
2019-01-20T07:45:21.689Z,79.31
2019-01-20T07:47:30.034Z,79.61
2019-01-20T07:49:37.870Z,79.83
2019-01-20T07:51:45.675Z,80.03
2019-01-20T07:53:53.540Z,80.08
2019-01-20T07:56:01.229Z,80.34
2019-01-20T07:58:09.128Z,79.99
2019-01-20T08:00:19.252Z,79.78
2019-01-20T08:02:26.880Z,80.01
2019-01-20T08:04:34.404Z,79.55
2019-01-20T08:06:41.993Z,79.17
2019-01-20T08:08:49.501Z,77.59
2019-01-20T08:10:56.991Z,77.38
2019-01-20T08:13:06.287Z,77.93
2019-01-20T08:15:13.953Z,79.20
2019-01-20T08:17:21.591Z,78.23
2019-01-20T08:19:29.620Z,78.20
2019-01-20T08:21:36.973Z,77.73
2019-01-20T08:23:44.559Z,79.58
2019-01-20T08:25:52.123Z,79.42
2019-01-20T08:27:59.638Z,79.39
2019-01-20T08:30:09.825Z,79.49
2019-01-20T08:32:18.434Z,78.80
2019-01-20T08:34:26.137Z,78.57
2019-01-20T08:36:33.904Z,76.71
2019-01-20T08:38:41.434Z,76.44
2019-01-20T08:40:49.078Z,76.01
2019-01-20T08:42:56.754Z,75.81
2019-01-20T08:45:04.412Z,76.24
2019-01-20T08:47:21.618Z,75.70
2019-01-20T08:49:29.219Z,75.66
2019-01-20T08:51:39.516Z,76.64
2019-01-20T08:53:47.188Z,77.42
2019-01-20T08:55:55.391Z,76.69
2019-01-20T08:58:03.441Z,76.84
2019-01-20T09:00:16.163Z,76.00
2019-01-20T09:02:24.057Z,76.31
2019-01-20T09:04:31.838Z,76.72
2019-01-20T09:06:39.110Z,78.34
2019-01-20T09:08:46.836Z,76.40
2019-01-20T09:10:54.203Z,77.40
2019-01-20T09:13:04.100Z,76.32
2019-01-20T09:15:12.017Z,77.67
2019-01-20T09:17:19.788Z,78.38
2019-01-20T09:19:27.269Z,78.43
2019-01-20T09:21:35.400Z,78.22
2019-01-20T09:23:43.720Z,76.74
2019-01-20T09:25:51.232Z,76.20
2019-01-20T09:28:01.071Z,78.05
2019-01-20T09:30:14.022Z,76.19
2019-01-20T09:32:21.472Z,76.68
2019-01-20T09:34:29.093Z,75.03
2019-01-20T09:36:36.439Z,75.87
2019-01-20T09:38:44.687Z,76.11
2019-01-20T09:40:52.383Z,75.09
2019-01-20T09:43:01.172Z,75.26
2019-01-20T09:45:15.138Z,75.24
2019-01-20T09:47:23.141Z,74.75
2019-01-20T09:49:31.059Z,76.32
2019-01-20T09:51:39.113Z,75.87
2019-01-20T09:53:47.546Z,75.60
2019-01-20T09:55:55.976Z,75.82
2019-01-20T09:58:04.377Z,76.79
2019-01-20T10:00:17.079Z,75.43
2019-01-20T10:02:25.762Z,75.23
2019-01-20T10:04:34.035Z,75.85
2019-01-20T10:06:42.409Z,75.44
2019-01-20T10:08:50.911Z,75.03
2019-01-20T10:10:59.449Z,75.26
2019-01-20T10:13:07.773Z,75.28
2019-01-20T10:15:16.300Z,75.49
2019-01-20T10:17:24.672Z,75.15
2019-01-20T10:19:31.971Z,75.59
2019-01-20T10:21:39.462Z,75.05
2019-01-20T10:23:46.847Z,75.58
2019-01-20T10:25:54.078Z,74.91
2019-01-20T10:28:01.434Z,75.76
2019-01-20T10:30:15.717Z,75.92
2019-01-20T10:32:23.274Z,74.62
2019-01-20T10:34:31.307Z,74.09
2019-01-20T10:36:38.909Z,74.39
2019-01-20T10:38:46.335Z,74.60
2019-01-20T10:40:53.772Z,73.97
2019-01-20T10:43:01.301Z,73.01
2019-01-20T10:45:10.294Z,72.92
2019-01-20T10:47:18.156Z,74.31
2019-01-20T10:49:25.599Z,74.04
2019-01-20T10:51:33.319Z,72.53
2019-01-20T10:53:40.822Z,73.95
2019-01-20T10:55:48.276Z,73.00
2019-01-20T10:57:56.027Z,72.73
2019-01-20T11:00:03.718Z,73.85
2019-01-20T11:02:11.488Z,73.68
2019-01-20T11:04:19.006Z,74.36
2019-01-20T11:06:26.612Z,73.55
2019-01-20T11:08:34.649Z,74.70
2019-01-20T11:10:42.898Z,73.14
2019-01-20T11:12:51.271Z,72.49
2019-01-20T11:14:59.774Z,73.90
2019-01-20T11:17:08.460Z,73.12
2019-01-20T11:19:16.154Z,74.08
2019-01-20T11:21:24.540Z,73.65
2019-01-20T11:23:33.427Z,72.62
2019-01-20T11:25:45.987Z,73.30
2019-01-20T11:27:54.178Z,72.22
2019-01-20T11:30:03.194Z,72.04
2019-01-20T11:32:10.555Z,71.68
2019-01-20T11:34:19.217Z,72.59
2019-01-20T11:36:27.359Z,71.99
2019-01-20T11:38:35.021Z,72.87
2019-01-20T11:40:42.769Z,73.15
2019-01-20T11:42:50.816Z,73.36
2019-01-20T11:44:58.400Z,73.16
2019-01-20T11:47:06.068Z,72.39
2019-01-20T11:49:13.855Z,72.08
2019-01-20T11:51:21.546Z,73.78
2019-01-20T11:53:29.888Z,73.03
2019-01-20T11:55:38.297Z,72.64
2019-01-20T11:57:46.124Z,72.27
2019-01-20T11:59:53.893Z,73.33
2019-01-20T12:02:02.450Z,72.62
2019-01-20T12:04:10.253Z,71.67
2019-01-20T12:06:18.226Z,72.30
2019-01-20T12:08:30.585Z,72.34
2019-01-20T12:10:35.612Z,72.35
2019-01-20T12:12:46.417Z,71.53
2019-01-20T12:14:53.895Z,71.59
2019-01-20T12:17:01.828Z,72.51
2019-01-20T12:19:09.230Z,72.38
2019-01-20T12:21:18.040Z,71.74
2019-01-20T12:23:25.325Z,71.52
2019-01-20T12:25:32.855Z,72.46
2019-01-20T12:27:41.267Z,72.07
2019-01-20T12:29:51.896Z,71.94
2019-01-20T12:32:00.615Z,73.06
2019-01-20T12:34:08.816Z,72.83
2019-01-20T12:36:16.858Z,72.15
2019-01-20T12:38:24.927Z,72.47
2019-01-20T12:40:45.892Z,72.83
2019-01-20T12:42:53.795Z,72.58
2019-01-20T12:45:02.299Z,73.11
2019-01-20T12:47:11.910Z,71.87
2019-01-20T12:49:19.820Z,72.28
2019-01-20T12:51:28.616Z,72.12
2019-01-20T12:53:36.813Z,71.09
2019-01-20T12:55:44.664Z,71.33
2019-01-20T12:57:52.355Z,70.85
2019-01-20T12:59:59.682Z,72.45
2019-01-20T13:02:06.968Z,71.22
2019-01-20T13:04:14.319Z,71.89
2019-01-20T13:06:22.327Z,72.48
2019-01-20T13:08:29.878Z,72.35
2019-01-20T13:10:37.805Z,72.87
2019-01-20T13:12:45.807Z,71.13
2019-01-20T13:14:54.135Z,70.73
2019-01-20T13:17:02.691Z,70.76
2019-01-20T13:19:11.604Z,71.08
2019-01-20T13:21:20.972Z,70.62
2019-01-20T13:23:28.938Z,70.36
2019-01-20T13:25:37.194Z,70.88
2019-01-20T13:27:45.550Z,72.34
2019-01-20T13:29:54.485Z,72.55
2019-01-20T13:32:03.068Z,72.00
2019-01-20T13:34:10.832Z,72.53
2019-01-20T13:36:19.093Z,72.50
2019-01-20T13:38:29.057Z,72.28
2019-01-20T13:40:45.483Z,72.55
2019-01-20T13:42:54.376Z,72.58
2019-01-20T13:45:03.067Z,72.62
2019-01-20T13:47:11.558Z,73.30
2019-01-20T13:49:19.964Z,71.62
2019-01-20T13:51:29.775Z,72.21
2019-01-20T13:53:38.389Z,72.64
2019-01-20T13:55:46.643Z,72.32
2019-01-20T13:57:54.820Z,72.37
2019-01-20T14:00:02.749Z,72.68
2019-01-20T14:02:10.842Z,72.51
2019-01-20T14:04:19.236Z,72.75
2019-01-20T14:06:27.240Z,72.82
2019-01-20T14:08:34.412Z,72.06
2019-01-20T14:10:41.701Z,73.00
2019-01-20T14:12:48.990Z,72.15
2019-01-20T14:14:56.330Z,72.45
2019-01-20T14:17:03.789Z,72.27
2019-01-20T14:19:11.653Z,72.65
2019-01-20T14:21:19.143Z,72.75
2019-01-20T14:23:26.643Z,72.36
2019-01-20T14:25:34.299Z,73.43
2019-01-20T14:27:41.584Z,73.16
2019-01-20T14:29:48.877Z,72.48
2019-01-20T14:31:56.220Z,72.59
2019-01-20T14:34:03.520Z,72.92
2019-01-20T14:36:10.944Z,73.30
2019-01-20T14:38:18.218Z,72.34
2019-01-20T14:40:25.438Z,72.72
2019-01-20T14:42:32.637Z,72.84
2019-01-20T14:44:39.758Z,73.08
2019-01-20T14:46:46.843Z,72.34
2019-01-20T14:48:54.542Z,73.28
2019-01-20T14:51:01.799Z,71.73
2019-01-20T14:53:09.434Z,73.23
2019-01-20T14:55:16.845Z,73.10
2019-01-20T14:57:24.037Z,72.70
2019-01-20T14:59:31.235Z,72.49
2019-01-20T15:01:38.524Z,73.28
2019-01-20T15:03:45.769Z,73.19
2019-01-20T15:05:52.996Z,73.55
2019-01-20T15:08:00.596Z,73.65
2019-01-20T15:10:10.003Z,72.26
2019-01-20T15:12:17.141Z,73.15
2019-01-20T15:14:24.296Z,73.55
2019-01-20T15:16:31.771Z,72.94
2019-01-20T15:18:39.077Z,73.21
2019-01-20T15:20:46.763Z,73.17
2019-01-20T15:22:53.940Z,73.15
2019-01-20T15:25:01.934Z,73.26
2019-01-20T15:27:09.490Z,73.87
2019-01-20T15:29:16.567Z,73.05
2019-01-20T15:31:23.610Z,73.06
2019-01-20T15:33:31.835Z,73.60
2019-01-20T15:35:39.353Z,73.60
2019-01-20T15:37:47.045Z,73.61
2019-01-20T15:39:54.643Z,73.77
2019-01-20T15:42:02.122Z,74.04
2019-01-20T15:44:09.849Z,73.86
2019-01-20T15:46:17.418Z,73.18
2019-01-20T15:48:25.086Z,73.47
2019-01-20T15:50:33.510Z,73.35
2019-01-20T15:52:40.901Z,74.21
2019-01-20T15:54:48.323Z,74.23
2019-01-20T15:56:55.863Z,73.53
2019-01-20T15:59:03.556Z,73.18
2019-01-20T16:01:10.788Z,73.57
2019-01-20T16:03:18.024Z,73.55
2019-01-20T16:05:26.381Z,73.78
2019-01-20T16:07:33.725Z,73.39
2019-01-20T16:09:40.874Z,73.54
2019-01-20T16:11:48.196Z,74.54
2019-01-20T16:13:56.414Z,74.33
2019-01-20T16:16:04.276Z,73.80
2019-01-20T16:18:14.318Z,73.90
2019-01-20T16:20:21.355Z,73.89
2019-01-20T16:22:28.910Z,73.97
2019-01-20T16:24:36.618Z,73.73
2019-01-20T16:26:44.286Z,73.94
2019-01-20T16:28:51.849Z,73.23
2019-01-20T16:30:59.328Z,73.40
2019-01-20T16:33:06.624Z,73.26
2019-01-20T16:35:14.827Z,73.46
2019-01-20T16:37:22.511Z,74.01
2019-01-20T16:39:30.053Z,73.62
2019-01-20T16:41:37.490Z,73.95
2019-01-20T16:43:45.632Z,74.48
2019-01-20T16:45:53.728Z,73.77
2019-01-20T16:48:01.115Z,74.12
2019-01-20T16:50:11.614Z,73.42
2019-01-20T16:52:20.026Z,73.92
2019-01-20T16:54:28.825Z,73.34
2019-01-20T16:56:37.676Z,73.59
2019-01-20T16:58:45.772Z,73.45
2019-01-20T17:00:54.322Z,73.67
2019-01-20T17:03:02.323Z,73.42
2019-01-20T17:05:12.611Z,73.15
2019-01-20T17:07:20.630Z,72.68
2019-01-20T17:09:29.594Z,73.34
2019-01-20T17:11:38.052Z,73.45
2019-01-20T17:13:46.755Z,73.11
2019-01-20T17:15:54.728Z,73.42
2019-01-20T17:18:02.105Z,73.30
2019-01-20T17:20:10.885Z,73.45
2019-01-20T17:22:19.034Z,73.71
2019-01-20T17:24:27.468Z,73.80
2019-01-20T17:26:35.649Z,73.96
2019-01-20T17:28:45.548Z,73.10
2019-01-20T17:30:53.674Z,73.60
2019-01-20T17:33:01.474Z,73.65
2019-01-20T17:35:11.093Z,73.50
2019-01-20T17:37:19.444Z,72.95
2019-01-20T17:39:27.632Z,73.94
2019-01-20T17:41:35.931Z,73.71
2019-01-20T17:43:44.587Z,73.94
2019-01-20T17:45:52.364Z,73.72
2019-01-20T17:48:00.730Z,73.68
2019-01-20T17:50:14.695Z,74.31
2019-01-20T17:52:23.262Z,73.40
2019-01-20T17:54:31.253Z,73.85
2019-01-20T17:56:39.485Z,73.62
2019-01-20T17:58:48.053Z,74.06
2019-01-20T18:01:05.968Z,73.90
2019-01-20T18:03:14.365Z,74.48
2019-01-20T18:05:24.514Z,74.24
2019-01-20T18:07:32.253Z,74.30
2019-01-20T18:09:39.961Z,74.40
2019-01-20T18:11:48.839Z,74.14
2019-01-20T18:13:56.734Z,73.73
2019-01-20T18:16:04.775Z,73.74
2019-01-20T18:18:13.026Z,73.95
2019-01-20T18:20:24.072Z,73.73
2019-01-20T18:22:32.331Z,73.67
2019-01-20T18:24:40.930Z,73.85
2019-01-20T18:26:49.747Z,74.30
2019-01-20T18:28:57.769Z,73.66
2019-01-20T18:31:06.010Z,74.00
2019-01-20T18:33:14.397Z,74.15
2019-01-20T18:35:23.342Z,73.81
2019-01-20T18:37:31.053Z,73.81
2019-01-20T18:39:39.054Z,74.61
2019-01-20T18:41:46.953Z,74.56
2019-01-20T18:43:54.601Z,73.97
2019-01-20T18:46:02.594Z,73.80
2019-01-20T18:48:10.231Z,73.71
2019-01-20T18:50:21.154Z,74.41
2019-01-20T18:52:29.243Z,74.37
2019-01-20T18:54:36.778Z,74.24
2019-01-20T18:56:44.627Z,74.15
2019-01-20T18:58:52.385Z,74.13
2019-01-20T19:01:00.300Z,74.53
2019-01-20T19:03:07.647Z,73.67
2019-01-20T19:05:16.589Z,74.08
2019-01-20T19:07:24.253Z,74.83
2019-01-20T19:09:31.751Z,74.84
2019-01-20T19:11:40.453Z,74.67
2019-01-20T19:13:48.354Z,75.38
2019-01-20T19:15:56.208Z,74.16
2019-01-20T19:18:06.603Z,73.94
2019-01-20T19:20:24.670Z,73.57
2019-01-20T19:22:32.913Z,73.61
2019-01-20T19:24:40.766Z,74.10
2019-01-20T19:26:48.451Z,73.87
2019-01-20T19:29:02.800Z,74.09
2019-01-20T19:31:04.869Z,73.98
2019-01-20T19:33:14.736Z,74.36
2019-01-20T19:35:22.987Z,74.40
2019-01-20T19:37:32.329Z,74.54
2019-01-20T19:39:40.313Z,74.11
2019-01-20T19:41:48.428Z,74.86
2019-01-20T19:43:56.109Z,74.86
2019-01-20T19:46:06.113Z,74.94
2019-01-20T19:48:20.094Z,74.93
2019-01-20T19:50:23.808Z,74.66
2019-01-20T19:52:31.372Z,74.82
2019-01-20T19:54:39.885Z,75.03
2019-01-20T19:56:47.662Z,75.00
2019-01-20T19:58:55.124Z,75.45
2019-01-20T20:01:02.609Z,75.83
2019-01-20T20:03:10.832Z,75.78
2019-01-20T20:05:20.380Z,75.50
2019-01-20T20:07:28.031Z,75.80
2019-01-20T20:09:35.715Z,76.23
2019-01-20T20:11:43.404Z,75.89
2019-01-20T20:13:50.991Z,76.22
2019-01-20T20:15:58.714Z,76.22
2019-01-20T20:18:06.689Z,76.65
2019-01-20T20:20:14.646Z,76.63
2019-01-20T20:22:22.756Z,76.43
2019-01-20T20:24:30.506Z,76.89
2019-01-20T20:26:38.664Z,76.83
2019-01-20T20:28:46.440Z,76.74
2019-01-20T20:30:54.018Z,77.04
2019-01-20T20:33:01.868Z,76.67
2019-01-20T20:35:09.984Z,76.34
2019-01-20T20:37:17.625Z,76.27
2019-01-20T20:39:25.582Z,76.41
2019-01-20T20:41:33.279Z,76.40
2019-01-20T20:43:41.644Z,75.98
2019-01-20T20:45:49.688Z,76.53
2019-01-20T20:47:57.933Z,76.31
2019-01-20T20:50:05.769Z,76.44
2019-01-20T20:52:13.307Z,76.67
2019-01-20T20:54:20.885Z,76.76
2019-01-20T20:56:28.402Z,76.45
2019-01-20T20:58:35.830Z,76.34
2019-01-20T21:00:46.972Z,76.10
2019-01-20T21:02:55.008Z,75.71
2019-01-20T21:05:02.581Z,76.18
2019-01-20T21:07:10.403Z,75.91
2019-01-20T21:09:17.987Z,76.42
2019-01-20T21:11:25.526Z,75.89
2019-01-20T21:13:33.152Z,75.55
2019-01-20T21:15:40.515Z,75.58
2019-01-20T21:17:48.701Z,75.50
2019-01-20T21:19:56.475Z,76.35
2019-01-20T21:22:03.719Z,76.61
2019-01-20T21:24:10.947Z,75.87
2019-01-20T21:26:18.589Z,75.62
2019-01-20T21:28:26.094Z,75.62
2019-01-20T21:30:33.220Z,75.59
2019-01-20T21:32:40.352Z,75.61
2019-01-20T21:34:47.513Z,75.72
2019-01-20T21:36:54.677Z,75.74
2019-01-20T21:39:02.330Z,75.72
2019-01-20T21:41:09.500Z,75.73
2019-01-20T21:43:16.572Z,75.78
2019-01-20T21:45:24.560Z,75.59
2019-01-20T21:47:31.788Z,75.54
2019-01-20T21:49:39.148Z,75.86
2019-01-20T21:51:46.733Z,76.03
2019-01-20T21:53:54.168Z,75.68
2019-01-20T21:56:02.526Z,75.56
2019-01-20T21:58:09.873Z,75.65
2019-01-20T22:00:21.219Z,75.75
2019-01-20T22:02:28.562Z,75.77
2019-01-20T22:04:37.906Z,75.51
2019-01-20T22:06:45.061Z,76.27
2019-01-20T22:08:52.431Z,75.75
2019-01-20T22:11:00.118Z,75.85
2019-01-20T22:13:07.225Z,75.75
2019-01-20T22:15:14.736Z,75.32
2019-01-20T22:17:22.433Z,75.55
2019-01-20T22:19:30.047Z,75.78
2019-01-20T22:21:37.399Z,75.37
2019-01-20T22:23:45.070Z,75.45
2019-01-20T22:25:52.615Z,75.73
2019-01-20T22:27:59.942Z,75.93
2019-01-20T22:30:14.737Z,75.90
2019-01-20T22:32:21.912Z,75.63
2019-01-20T22:34:29.027Z,75.58
2019-01-20T22:36:36.253Z,75.77
2019-01-20T22:38:43.376Z,75.61
2019-01-20T22:40:50.514Z,75.80
2019-01-20T22:42:59.136Z,75.75
2019-01-20T22:45:07.427Z,76.00
2019-01-20T22:47:15.008Z,75.87
2019-01-20T22:49:22.361Z,76.18
2019-01-20T22:51:29.439Z,76.03
2019-01-20T22:53:36.486Z,76.11
2019-01-20T22:55:43.703Z,76.25
2019-01-20T22:57:50.877Z,75.90
2019-01-20T23:02:29.322Z,76.12
2019-01-20T23:04:36.381Z,76.08
2019-01-20T23:06:43.477Z,76.34
2019-01-20T23:08:50.668Z,76.17
2019-01-20T23:10:57.727Z,76.01
2019-01-20T23:13:04.939Z,75.87
2019-01-20T23:15:12.567Z,75.92
2019-01-20T23:17:19.575Z,76.17
2019-01-20T23:19:26.614Z,76.51
2019-01-20T23:21:33.771Z,76.58
2019-01-20T23:23:40.882Z,76.50
2019-01-20T23:25:48.010Z,76.27
2019-01-20T23:27:55.408Z,76.58
2019-01-20T23:30:02.799Z,76.45
2019-01-20T23:32:10.166Z,76.25
2019-01-20T23:34:17.839Z,76.77
2019-01-20T23:36:25.268Z,76.25
2019-01-20T23:38:32.335Z,76.49
2019-01-20T23:40:39.408Z,76.21
2019-01-20T23:42:46.542Z,76.46
2019-01-20T23:44:53.617Z,76.72
2019-01-20T23:47:00.648Z,76.49
2019-01-20T23:49:07.931Z,76.04
2019-01-20T23:51:15.343Z,76.43
2019-01-20T23:53:22.491Z,76.49
2019-01-20T23:55:29.576Z,76.91
2019-01-20T23:57:36.989Z,76.49
2019-01-20T23:59:44.288Z,76.79
